Time;durP1;ratioP1;P1;durP2;ratioP2;P2;SDS_P1;SDS_P2;PMS_P1;PMS_P2;Temp;Humidity;BMP_temperature;BMP_pressure;BME280_temperature;BME280_humidity;BME280_pressure;Samples;Min_cycle;Max_cycle;Signal;HPM_P1;HPM_P2
2021/03/21 00:00:28;;;;;;;4.37;2.47;;;;;;;-144.99;100.00;52329.88;5077802;28;20708;-74
2021/03/21 00:02:55;;;;;;;4.73;2.27;;;;;;;-144.99;100.00;52350.25;5111692;22;20690;-74
2021/03/21 00:05:22;;;;;;;4.30;2.87;;;;;;;-144.99;100.00;52378.78;5086629;28;20610;-74
2021/03/21 00:07:52;;;;;;;3.17;2.17;;;;;;;-144.99;100.00;52358.41;5088246;28;20639;-73
2021/03/21 00:10:18;;;;;;;6.27;2.80;;;;;;;-144.99;100.00;52338.03;5079975;28;20981;-74
2021/03/21 00:12:44;;;;;;;2.30;1.57;;;;;;;-144.99;100.00;52352.28;5086953;28;20773;-73
2021/03/21 00:15:11;;;;;;;5.37;3.30;;;;;;;-144.99;100.00;52360.44;5092359;28;21215;-73
2021/03/21 00:17:37;;;;;;;5.70;1.97;;;;;;;-144.99;100.00;52325.81;5085283;28;20245;-74
2021/03/21 00:20:07;;;;;;;5.80;2.70;;;;;;;-144.99;100.00;52362.50;5092577;28;20668;-72
2021/03/21 00:22:33;;;;;;;4.73;3.90;;;;;;;-144.99;100.00;52317.66;5085872;28;20216;-74
2021/03/21 00:24:59;;;;;;;6.13;3.60;;;;;;;-144.99;100.00;52317.66;5094796;28;21152;-75
2021/03/21 00:27:25;;;;;;;3.50;2.37;;;;;;;-144.99;100.00;52303.38;5093001;28;20731;-73
2021/03/21 00:29:51;;;;;;;7.63;3.37;;;;;;;-144.99;100.00;52350.25;5093665;28;20219;-75
2021/03/21 00:32:17;;;;;;;7.37;2.27;;;;;;;-144.99;100.00;52388.97;5092253;28;20304;-73
2021/03/21 00:34:43;;;;;;;8.30;3.43;;;;;;;-144.99;100.00;52325.81;5092994;28;20204;-74
2021/03/21 00:37:10;;;;;;;4.93;2.50;;;;;;;-144.99;100.00;52323.75;5090525;28;20653;-74
2021/03/21 00:39:35;;;;;;;5.33;2.40;;;;;;;-144.99;100.00;52356.38;5087336;28;20212;-76
2021/03/21 00:42:02;;;;;;;4.17;2.33;;;;;;;-144.99;100.00;52313.56;5088465;28;20642;-76
2021/03/21 00:44:28;;;;;;;4.13;2.33;;;;;;;-144.99;100.00;52362.50;5091535;28;20196;-75
2021/03/21 00:46:54;;;;;;;3.17;2.07;;;;;;;-144.99;100.00;52315.59;5089285;28;20654;-76
2021/03/21 00:49:20;;;;;;;3.47;2.30;;;;;;;-144.99;100.00;52346.19;5092245;28;20937;-74
2021/03/21 00:51:46;;;;;;;10.53;3.47;;;;;;;-144.99;100.00;52329.88;5090630;28;20693;-73
2021/03/21 00:54:13;;;;;;;4.80;2.07;;;;;;;-144.99;100.00;52362.50;5094200;28;20628;-76
2021/03/21 00:56:41;;;;;;;6.60;2.67;;;;;;;-144.99;100.00;52378.78;5098582;28;21160;-79
2021/03/21 00:59:08;;;;;;;4.77;2.60;;;;;;;-144.99;100.00;52352.28;5098563;28;20678;-78
2021/03/21 01:01:36;;;;;;;10.60;3.13;;;;;;;-144.99;100.00;52366.56;5101853;28;20749;-78
2021/03/21 01:04:02;;;;;;;5.97;2.47;;;;;;;-144.99;100.00;52333.94;5091944;28;21260;-75
2021/03/21 01:06:28;;;;;;;6.17;3.20;;;;;;;-144.99;100.00;52391.03;5092055;28;20637;-76
2021/03/21 01:08:56;;;;;;;10.17;3.00;;;;;;;-144.99;100.00;52388.97;5093650;28;21178;-73
2021/03/21 01:11:27;;;;;;;11.27;3.87;;;;;;;-144.99;100.00;52321.72;5092956;28;20646;-76
2021/03/21 01:13:53;;;;;;;5.17;3.60;;;;;;;-144.99;100.00;52370.63;5090176;28;20650;-74
2021/03/21 01:16:21;;;;;;;3.57;2.63;;;;;;;-144.99;100.00;52380.84;5087073;28;20625;-75
2021/03/21 01:18:49;;;;;;;8.50;4.57;;;;;;;-144.99;100.00;52342.09;5089464;28;21184;-74
2021/03/21 01:21:15;;;;;;;10.53;3.47;;;;;;;-144.99;100.00;52354.34;5091183;28;20672;-73
2021/03/21 01:23:43;;;;;;;10.90;4.70;;;;;;;-144.99;100.00;52348.22;5091478;28;20682;-75
2021/03/21 01:26:11;;;;;;;10.27;4.53;;;;;;;-144.99;100.00;52346.19;5088914;28;20231;-75
2021/03/21 01:28:38;;;;;;;8.63;4.70;;;;;;;-144.99;100.00;52376.75;5091193;28;20630;-77
2021/03/21 01:31:07;;;;;;;10.53;5.80;;;;;;;-144.99;100.00;52342.09;5090749;28;21007;-75
2021/03/21 01:33:33;;;;;;;6.80;3.33;;;;;;;-144.99;100.00;52358.41;5083283;28;20706;-76
2021/03/21 01:36:00;;;;;;;14.03;7.10;;;;;;;-144.99;100.00;52329.88;5089943;28;20630;-75
2021/03/21 01:38:26;;;;;;;6.87;5.00;;;;;;;-144.99;100.00;52342.09;5082740;28;20618;-76
2021/03/21 01:40:56;;;;;;;7.77;4.63;;;;;;;-144.99;100.00;52329.88;5089440;28;20629;-74
2021/03/21 01:43:28;;;;;;;9.97;4.20;;;;;;;-144.99;100.00;52338.03;5090471;28;20679;-75
2021/03/21 01:45:56;;;;;;;9.30;4.20;;;;;;;-144.99;100.00;52366.56;5085843;28;20681;-75
2021/03/21 01:48:35;;;;;;;4.90;3.17;;;;;;;-144.99;100.00;52315.59;5089325;28;20625;-75
2021/03/21 01:51:03;;;;;;;5.13;3.10;;;;;;;-144.99;100.00;52358.41;5089947;28;20610;-76
2021/03/21 01:53:32;;;;;;;7.17;2.53;;;;;;;-144.99;100.00;52360.44;5090820;28;20214;-76
2021/03/21 01:55:59;;;;;;;6.57;2.63;;;;;;;-144.99;100.00;52315.59;5090434;28;20315;-76
2021/03/21 01:58:28;;;;;;;4.83;2.97;;;;;;;-144.99;100.00;52331.91;5085884;28;20634;-78
2021/03/21 02:00:57;;;;;;;7.13;2.23;;;;;;;-144.99;100.00;52338.03;5088388;28;20729;-76
2021/03/21 02:03:23;;;;;;;2.77;1.97;;;;;;;-144.99;100.00;52325.81;5086881;28;20626;-76
2021/03/21 02:05:52;;;;;;;4.00;2.60;;;;;;;-144.99;100.00;52354.34;5083998;28;20227;-77
2021/03/21 02:08:30;;;;;;;4.33;2.03;;;;;;;-144.99;100.00;52329.88;5086793;28;20634;-75
2021/03/21 02:11:03;;;;;;;3.83;2.50;;;;;;;-144.99;100.00;52338.03;5082029;28;20606;-75
2021/03/21 02:13:37;;;;;;;2.90;1.87;;;;;;;-144.99;100.00;52342.09;5087665;28;20964;-76
2021/03/21 02:16:09;;;;;;;2.70;1.63;;;;;;;-144.99;100.00;52368.59;5088936;28;20648;-77
2021/03/21 02:18:46;;;;;;;2.77;1.80;;;;;;;-144.99;100.00;52370.63;5089859;28;20208;-76
2021/03/21 02:21:23;;;;;;;3.40;1.70;;;;;;;-144.99;100.00;52366.56;5086593;28;20642;-77
2021/03/21 02:24:24;;;;;;;4.40;1.83;;;;;;;-144.99;100.00;52321.72;5090338;28;20935;-77
2021/03/21 02:27:05;;;;;;;5.37;2.17;;;;;;;-144.99;100.00;52386.94;5087992;28;21015;-77
2021/03/21 02:29:40;;;;;;;4.50;1.57;;;;;;;-144.99;100.00;52358.41;5085373;28;20197;-77
2021/03/21 02:32:13;;;;;;;2.87;1.87;;;;;;;-144.99;100.00;52329.88;5089769;28;20997;-76
2021/03/21 02:34:50;;;;;;;2.40;1.23;;;;;;;-144.99;100.00;52358.41;5086559;28;20197;-78
2021/03/21 02:37:21;;;;;;;2.47;1.13;;;;;;;-144.99;100.00;52354.34;5088854;28;20215;-76
2021/03/21 02:39:54;;;;;;;1.57;1.07;;;;;;;-144.99;100.00;52333.94;5086919;28;20192;-76
2021/03/21 02:42:25;;;;;;;6.00;1.87;;;;;;;-144.99;100.00;52325.81;5087226;28;20222;-76
2021/03/21 02:44:59;;;;;;;3.57;2.63;;;;;;;-144.99;100.00;52342.09;5079041;28;20200;-76
2021/03/21 02:47:28;;;;;;;9.97;3.00;;;;;;;-144.99;100.00;52354.34;5085043;28;20764;-73
2021/03/21 02:49:58;;;;;;;7.03;2.67;;;;;;;-144.99;100.00;52311.53;5085866;28;20610;-76
2021/03/21 02:52:30;;;;;;;9.17;3.07;;;;;;;-144.99;100.00;52362.50;5086360;28;20642;-75
2021/03/21 02:55:00;;;;;;;5.43;2.00;;;;;;;-144.99;100.00;52321.72;5077662;28;20637;-75
2021/03/21 02:57:31;;;;;;;8.20;5.53;;;;;;;-144.99;100.00;52307.47;5086234;28;20606;-73
2021/03/21 02:59:59;;;;;;;12.53;3.00;;;;;;;-144.99;100.00;52317.66;5088077;28;20729;-74
2021/03/21 03:02:31;;;;;;;4.80;2.07;;;;;;;-144.99;100.00;52323.75;5088214;28;20665;-75
2021/03/21 03:05:01;;;;;;;8.77;2.97;;;;;;;-144.99;100.00;52336.00;5088084;28;20695;-75
2021/03/21 03:07:34;;;;;;;12.70;5.37;;;;;;;-144.99;100.00;52333.94;5081581;28;20650;-74
2021/03/21 03:10:11;;;;;;;15.27;4.40;;;;;;;-144.99;100.00;52325.81;5089140;28;20618;-74
2021/03/21 03:12:43;;;;;;;9.87;2.97;;;;;;;-144.99;100.00;52378.78;5087802;28;20649;-74
2021/03/21 03:15:14;;;;;;;10.60;4.20;;;;;;;-144.99;100.00;52346.19;5090328;28;20630;-77
2021/03/21 03:17:43;;;;;;;8.27;4.97;;;;;;;-144.99;100.00;52317.66;5089966;28;20618;-76
2021/03/21 03:20:15;;;;;;;11.80;2.63;;;;;;;-144.99;100.00;52354.34;5087445;28;20610;-74
2021/03/21 03:22:48;;;;;;;19.03;3.77;;;;;;;-144.99;100.00;52362.50;5089962;28;21244;-74
2021/03/21 03:25:22;;;;;;;8.83;4.43;;;;;;;-144.99;100.00;52333.94;5088251;28;20625;-72
2021/03/21 03:28:02;;;;;;;4.90;2.00;;;;;;;-144.99;100.00;52360.44;5089300;28;20649;-75
2021/03/21 03:30:33;;;;;;;7.00;1.70;;;;;;;-144.99;100.00;52378.78;5088714;28;20947;-73
2021/03/21 03:32:59;;;;;;;6.80;2.50;;;;;;;-144.99;100.00;52382.88;5089525;28;20740;-74
2021/03/21 03:35:26;;;;;;;13.53;4.97;;;;;;;-144.99;100.00;52321.72;5090085;28;20632;-75
2021/03/21 03:37:53;;;;;;;8.20;2.47;;;;;;;-144.99;100.00;52370.63;5087678;28;20599;-74
2021/03/21 03:40:21;;;;;;;8.27;2.43;;;;;;;-144.99;100.00;52350.25;5083196;28;20979;-76
2021/03/21 03:43:00;;;;;;;11.37;3.13;;;;;;;-144.99;100.00;52354.34;5084902;28;20645;-74
2021/03/21 03:45:34;;;;;;;11.40;3.07;;;;;;;-144.99;100.00;52354.34;5088153;28;20626;-75
2021/03/21 03:48:07;;;;;;;7.37;2.40;;;;;;;-144.99;100.00;52372.69;5086720;28;20652;-74
2021/03/21 03:50:47;;;;;;;18.00;4.97;;;;;;;-144.99;100.00;52285.03;5088379;28;21031;-74
2021/03/21 03:53:28;;;;;;;5.90;1.93;;;;;;;-144.99;100.00;52333.94;5088780;28;20979;-75
2021/03/21 03:55:58;;;;;;;16.00;3.53;;;;;;;-144.99;100.00;52346.19;5088193;28;20632;-74
2021/03/21 03:58:28;;;;;;;10.73;2.57;;;;;;;-144.99;100.00;52309.50;5087665;28;20873;-74
2021/03/21 04:01:02;;;;;;;15.50;7.40;;;;;;;-144.99;100.00;52350.25;5086292;28;21074;-73
2021/03/21 04:03:38;;;;;;;9.83;3.23;;;;;;;-144.99;100.00;52364.53;5084621;28;20664;-74
2021/03/21 04:06:11;;;;;;;7.90;2.53;;;;;;;-144.99;100.00;52374.72;5074436;28;20629;-75
2021/03/21 04:08:45;;;;;;;11.03;4.77;;;;;;;-144.99;100.00;52360.44;5089296;28;20633;-75
2021/03/21 04:11:16;;;;;;;11.40;3.73;;;;;;;-144.99;100.00;52329.88;5086828;28;20683;-73
2021/03/21 04:13:44;;;;;;;13.83;5.13;;;;;;;-144.99;100.00;52354.34;5089203;28;20617;-75
2021/03/21 04:16:16;;;;;;;18.50;3.33;;;;;;;-144.99;100.00;52360.44;5091887;28;20717;-75
2021/03/21 04:18:47;;;;;;;8.10;2.23;;;;;;;-144.99;100.00;52358.41;5091406;28;21175;-74
2021/03/21 04:21:22;;;;;;;13.87;2.63;;;;;;;-144.99;100.00;52382.88;5088860;28;20649;-75
2021/03/21 04:23:54;;;;;;;19.53;5.30;;;;;;;-144.99;100.00;52368.59;5091853;28;20632;-75
2021/03/21 04:26:27;;;;;;;14.73;3.63;;;;;;;-144.99;100.00;52354.34;5090376;28;20650;-76
2021/03/21 04:29:00;;;;;;;17.57;3.27;;;;;;;-144.99;100.00;52350.25;5085645;28;20626;-75
2021/03/21 04:31:28;;;;;;;15.80;6.87;;;;;;;-144.99;100.00;52391.03;5090010;28;20646;-74
2021/03/21 04:33:58;;;;;;;13.63;2.87;;;;;;;-144.99;100.00;52358.41;5091217;28;20622;-77
2021/03/21 04:36:27;;;;;;;29.67;4.20;;;;;;;-144.99;100.00;52358.41;5088564;28;20668;-79
2021/03/21 04:38:57;;;;;;;20.73;4.17;;;;;;;-144.99;100.00;52362.50;5089154;28;20630;-79
2021/03/21 04:41:29;;;;;;;25.30;5.63;;;;;;;-144.99;100.00;52350.25;5090637;28;20650;-80
2021/03/21 04:44:01;;;;;;;20.90;5.80;;;;;;;-144.99;99.79;52395.09;5087200;28;20614;-75
2021/03/21 04:46:32;;;;;;;22.20;7.03;;;;;;;-144.99;96.85;52362.50;5083122;28;20653;-77
2021/03/21 04:48:58;;;;;;;26.23;6.27;;;;;;;-144.99;95.31;52333.94;5091706;28;20964;-76
2021/03/21 04:51:29;;;;;;;19.30;4.53;;;;;;;-144.99;94.25;52358.41;5083252;28;20650;-77
2021/03/21 04:53:58;;;;;;;12.17;3.67;;;;;;;-144.99;94.58;52333.94;5088844;28;21166;-77
2021/03/21 04:56:29;;;;;;;22.63;4.00;;;;;;;-144.99;94.82;52340.06;5089093;28;20646;-76
2021/03/21 04:58:59;;;;;;;15.97;5.10;;;;;;;-144.99;93.73;52354.34;5089432;28;21040;-76
2021/03/21 05:01:33;;;;;;;24.03;6.10;;;;;;;-144.99;92.61;52329.88;5087720;28;20676;-77
2021/03/21 05:04:05;;;;;;;24.50;4.50;;;;;;;-144.99;94.67;52366.56;5088887;28;20615;-76
2021/03/21 05:06:48;;;;;;;26.50;7.77;;;;;;;-144.99;90.32;52380.84;5082075;28;20680;-76
2021/03/21 05:09:19;;;;;;;17.20;5.00;;;;;;;-144.99;89.45;52346.19;5086265;28;20633;-76
2021/03/21 05:11:52;;;;;;;28.17;8.13;;;;;;;-144.99;91.33;52362.50;5084362;28;21018;-76
2021/03/21 05:14:26;;;;;;;26.90;8.30;;;;;;;-144.99;90.07;52388.97;5088568;28;20611;-77
2021/03/21 05:17:06;;;;;;;22.73;7.50;;;;;;;-144.99;90.40;52384.91;5084751;28;20941;-75
2021/03/21 05:19:42;;;;;;;24.57;5.73;;;;;;;-144.99;90.07;52370.63;5088069;28;20628;-75
2021/03/21 05:22:16;;;;;;;23.97;6.10;;;;;;;-144.99;90.25;52333.94;5085738;28;20653;-74
2021/03/21 05:24:50;;;;;;;28.33;8.03;;;;;;;-144.99;88.72;52366.56;5089808;28;20622;-74
2021/03/21 05:27:20;;;;;;;21.60;4.87;;;;;;;-144.99;89.09;52374.72;5090635;28;20699;-77
2021/03/21 05:29:51;;;;;;;31.07;7.50;;;;;;;-144.99;88.72;52366.56;5090038;28;20617;-76
2021/03/21 05:32:21;;;;;;;26.90;8.83;;;;;;;-144.99;89.88;52354.34;5085652;28;20649;-74
2021/03/21 05:34:49;;;;;;;19.93;9.23;;;;;;;-144.99;89.91;52350.25;5089693;28;21308;-75
2021/03/21 05:37:35;;;;;;;36.00;8.57;;;;;;;-144.99;90.80;52362.50;5090312;28;21211;-78
2021/03/21 05:40:48;;;;;;;29.00;9.20;;;;;;;-144.99;91.14;52366.56;5082257;28;20629;-75
2021/03/21 05:43:54;;;;;;;24.23;8.10;;;;;;;-144.99;92.68;52376.75;5026112;28;21269;-76
2021/03/21 05:46:44;;;;;;;24.63;8.93;;;;;;;-144.99;93.98;52354.34;5085814;28;20724;-77
2021/03/21 05:49:45;;;;;;;24.47;5.50;;;;;;;-144.99;93.69;52350.25;5087693;28;20625;-75
2021/03/21 05:52:32;;;;;;;25.57;6.23;;;;;;;-144.99;93.17;52346.19;5087879;28;20645;-76
2021/03/21 05:55:22;;;;;;;33.73;8.67;;;;;;;-144.99;93.56;52317.66;5086267;28;20617;-76
2021/03/21 05:58:24;;;;;;;26.33;5.47;;;;;;;-144.99;92.66;52372.69;5087750;28;20622;-76
2021/03/21 06:01:08;;;;;;;36.07;7.57;;;;;;;-144.99;92.06;52376.75;5086826;28;20679;-75
2021/03/21 06:04:15;;;;;;;34.23;8.20;;;;;;;-144.99;91.37;52403.25;5086329;28;20974;-74
2021/03/21 06:07:09;;;;;;;26.23;8.53;;;;;;;-144.99;91.79;52382.88;5080736;28;20641;-75
2021/03/21 06:10:09;;;;;;;26.17;6.13;;;;;;;-144.99;91.67;52321.72;5087767;28;20622;-73
2021/03/21 06:12:46;;;;;;;28.43;8.60;;;;;;;-144.99;92.30;52333.94;5082569;28;20660;-73
2021/03/21 06:15:48;;;;;;;23.23;6.87;;;;;;;-144.99;91.93;52388.97;5086534;28;20621;-74
2021/03/21 06:18:35;;;;;;;27.47;7.90;;;;;;;-144.99;91.89;52380.84;5088830;28;20617;-74
2021/03/21 06:21:22;;;;;;;25.27;6.90;;;;;;;-144.99;91.51;52374.72;5118039;22;20688;-72
2021/03/21 06:24:19;;;;;;;30.73;10.53;;;;;;;-144.99;91.68;52329.88;5145709;27;20768;-73
2021/03/21 06:26:50;;;;;;;29.67;8.93;;;;;;;-144.99;92.03;52366.56;5132768;27;20669;-75
2021/03/21 06:29:47;;;;;;;31.37;7.23;;;;;;;-144.99;91.31;52358.41;5141265;27;20633;-73
2021/03/21 06:32:41;;;;;;;26.87;9.53;;;;;;;-144.99;91.23;52329.88;5139972;27;20793;-73
2021/03/21 06:35:22;;;;;;;27.77;9.73;;;;;;;-144.99;90.71;52315.59;5135711;27;20624;-72
2021/03/21 06:38:05;;;;;;;33.57;8.57;;;;;;;-144.99;90.93;52350.25;5138672;27;20633;-74
2021/03/21 06:40:49;;;;;;;32.90;7.83;;;;;;;-144.99;89.87;52348.22;5137070;27;20645;-73
2021/03/21 06:43:48;;;;;;;34.57;6.70;;;;;;;-144.99;89.75;52382.88;5139968;27;20610;-74
2021/03/21 06:46:44;;;;;;;26.43;8.47;;;;;;;-144.99;88.79;52321.72;5135079;27;20612;-72
2021/03/21 06:49:40;;;;;;;38.33;9.83;;;;;;;-144.99;89.17;52370.63;5143486;27;20619;-73
2021/03/21 06:52:16;;;;;;;32.83;8.57;;;;;;;-144.99;88.65;52362.50;5146308;27;20682;-73
2021/03/21 06:54:54;;;;;;;32.20;7.07;;;;;;;-144.99;87.48;52333.94;5143059;27;20628;-74
2021/03/21 06:58:02;;;;;;;23.87;7.37;;;;;;;-144.99;88.24;52305.41;5143795;27;20714;-74
2021/03/21 07:01:19;;;;;;;26.33;10.47;;;;;;;-144.99;87.14;52325.81;5139928;27;20657;-73
2021/03/21 07:04:22;;;;;;;36.03;10.87;;;;;;;-144.99;86.14;52321.72;5126834;27;20646;-73
2021/03/21 07:07:48;;;;;;;34.30;9.03;;;;;;;-144.99;85.40;52374.72;5129683;27;20724;-72
2021/03/21 07:10:50;;;;;;;25.13;7.80;;;;;;;-144.99;86.50;52309.50;5127361;27;21237;-74
2021/03/21 07:14:07;;;;;;;28.10;10.73;;;;;;;-144.99;85.09;52350.25;5132928;27;21164;-74
2021/03/21 07:17:08;;;;;;;46.23;8.67;;;;;;;-144.99;84.79;52321.72;5124056;27;20218;-75
2021/03/21 07:20:21;;;;;;;24.27;8.07;;;;;;;-144.99;84.20;52358.41;5131203;28;20223;-75
2021/03/21 07:23:34;;;;;;;27.40;9.80;;;;;;;-144.99;84.30;52358.41;5138901;27;20234;-73
2021/03/21 07:26:19;;;;;;;35.57;11.87;;;;;;;-144.99;83.52;52338.03;5137817;28;20685;-76
2021/03/21 07:29:29;;;;;;;28.70;11.90;;;;;;;-144.99;83.24;52317.66;5140270;28;20198;-71
2021/03/21 07:32:26;;;;;;;20.27;7.43;;;;;;;-144.99;82.54;52321.72;5129388;27;20423;-74
2021/03/21 07:35:27;;;;;;;29.00;7.17;;;;;;;-144.99;82.00;52350.25;5125710;27;20319;-73
2021/03/21 07:38:03;;;;;;;34.43;7.87;;;;;;;-144.99;82.94;52333.94;5128045;27;20203;-73
2021/03/21 07:40:38;;;;;;;21.67;6.97;;;;;;;-144.99;82.53;52362.50;5132233;27;20252;-73
2021/03/21 07:43:17;;;;;;;28.63;9.93;;;;;;;-144.99;82.21;52354.34;5120425;27;20566;-74
2021/03/21 07:46:14;;;;;;;33.80;7.47;;;;;;;-144.99;82.21;52352.28;5135372;27;20212;-74
2021/03/21 07:48:56;;;;;;;23.33;8.20;;;;;;;-144.99;81.77;52342.09;5123207;27;20243;-73
2021/03/21 07:51:33;;;;;;;24.80;7.13;;;;;;;-144.99;81.81;52336.00;5134176;27;20237;-73
2021/03/21 07:54:17;;;;;;;30.97;8.17;;;;;;;-144.99;81.53;52293.19;5131204;27;20255;-75
2021/03/21 07:56:49;;;;;;;40.83;8.10;;;;;;;-144.99;81.65;52338.03;5133482;27;20543;-73
2021/03/21 07:59:19;;;;;;;26.23;8.27;;;;;;;-144.99;81.77;52329.88;5134993;27;20199;-72
2021/03/21 08:01:45;;;;;;;28.60;7.53;;;;;;;-144.99;81.29;52313.56;5128819;27;20219;-73
2021/03/21 08:04:15;;;;;;;27.80;8.00;;;;;;;-144.99;80.75;52285.03;5127902;27;20199;-74
2021/03/21 08:06:43;;;;;;;33.00;7.90;;;;;;;-144.99;79.95;52348.22;5132936;27;20314;-74
2021/03/21 08:09:16;;;;;;;21.53;7.87;;;;;;;-144.99;80.86;52289.13;5129007;27;20796;-72
2021/03/21 08:11:47;;;;;;;16.77;5.47;;;;;;;-144.99;79.10;52293.19;5127737;27;20254;-72
2021/03/21 08:14:25;;;;;;;24.23;6.90;;;;;;;-144.99;77.16;52305.41;5134484;27;20202;-72
2021/03/21 08:16:54;;;;;;;17.97;6.80;;;;;;;-144.99;76.29;52329.88;5127990;27;20195;-72
2021/03/21 08:19:25;;;;;;;28.33;9.30;;;;;;;-144.99;77.53;52342.09;5127571;27;20209;-72
2021/03/21 08:21:53;;;;;;;26.10;7.23;;;;;;;-144.99;76.06;52309.50;5128734;27;20234;-71
2021/03/21 08:24:22;;;;;;;23.23;7.67;;;;;;;-144.99;76.72;52346.19;5127959;27;20203;-72
2021/03/21 08:26:50;;;;;;;23.80;7.60;;;;;;;-144.99;75.25;52297.25;5125672;27;20268;-73
2021/03/21 08:29:26;;;;;;;23.50;5.70;;;;;;;-144.99;75.49;52321.72;5128892;27;20814;-73
2021/03/21 08:32:05;;;;;;;23.73;5.90;;;;;;;-144.99;74.04;52319.69;5128110;27;20230;-75
2021/03/21 08:34:44;;;;;;;20.83;5.53;;;;;;;-144.99;74.92;52301.34;5126341;27;20228;-75
2021/03/21 08:37:26;;;;;;;30.00;8.83;;;;;;;-144.99;75.19;52309.50;5124841;27;20209;-75
2021/03/21 08:39:56;;;;;;;17.33;4.83;;;;;;;-144.99;75.05;52301.34;5118889;27;20207;-73
2021/03/21 08:42:32;;;;;;;24.97;6.87;;;;;;;-144.99;72.61;52295.22;5123972;27;20198;-74
2021/03/21 08:45:07;;;;;;;13.03;5.07;;;;;;;-144.99;70.01;52342.09;5122243;27;20345;-75
2021/03/21 08:47:34;;;;;;;11.57;4.63;;;;;;;-144.99;71.53;52293.19;5134626;27;20218;-74
2021/03/21 08:50:02;;;;;;;12.67;6.07;;;;;;;-144.99;70.92;52268.72;5132500;27;20203;-73
2021/03/21 08:52:30;;;;;;;38.53;8.63;;;;;;;-144.99;67.66;52287.06;5125378;27;20287;-74
2021/03/21 08:54:58;;;;;;;22.63;5.80;;;;;;;-144.99;66.54;52240.19;5133902;27;20202;-75
2021/03/21 08:57:33;;;;;;;15.47;5.80;;;;;;;-144.99;66.05;52293.19;5131320;27;20566;-73
2021/03/21 09:00:16;;;;;;;18.83;6.10;;;;;;;-144.99;63.97;52305.41;5125929;27;20296;-75
2021/03/21 09:02:42;;;;;;;28.27;6.83;;;;;;;-144.99;63.44;52276.88;5133353;27;20281;-73
2021/03/21 09:05:12;;;;;;;22.53;5.53;;;;;;;-144.99;62.95;52252.44;5130899;27;20191;-73
2021/03/21 09:07:40;;;;;;;21.20;6.17;;;;;;;-144.99;62.23;52301.34;5143483;27;20214;-74
2021/03/21 09:10:29;;;;;;;26.83;6.53;;;;;;;-144.99;61.87;52293.19;5135010;27;20195;-74
2021/03/21 09:13:15;;;;;;;14.13;5.13;;;;;;;-144.99;61.68;52289.13;5120846;27;20560;-73
2021/03/21 09:15:43;;;;;;;22.27;4.13;;;;;;;-144.99;61.59;52268.72;5132779;27;20201;-74
2021/03/21 09:18:22;;;;;;;19.60;4.80;;;;;;;-144.99;61.78;52264.66;5125007;27;20203;-73
2021/03/21 09:20:56;;;;;;;24.93;6.20;;;;;;;-144.99;60.80;52325.81;5120229;27;20258;-76
2021/03/21 09:23:48;;;;;;;17.17;4.07;;;;;;;-144.99;60.39;52354.34;5123767;27;20213;-75
2021/03/21 09:26:38;;;;;;;14.03;4.07;;;;;;;-144.99;60.00;52276.88;5123318;27;20207;-75
2021/03/21 09:29:36;;;;;;;16.47;5.77;;;;;;;-144.99;59.33;52285.03;5118903;27;20191;-74
2021/03/21 09:32:06;;;;;;;18.37;4.33;;;;;;;-144.99;59.11;52305.41;5125226;27;21107;-76
2021/03/21 09:34:48;;;;;;;23.70;4.97;;;;;;;-144.99;58.83;52301.34;5130086;27;20199;-75
2021/03/21 09:37:19;;;;;;;16.67;4.73;;;;;;;-144.99;58.50;52301.34;5123481;27;20199;-75
2021/03/21 09:39:55;;;;;;;13.57;4.40;;;;;;;-144.99;58.77;52291.16;5113823;27;20545;-74
2021/03/21 09:42:23;;;;;;;21.77;5.03;;;;;;;-144.99;58.62;52309.50;5113169;28;20567;-73
2021/03/21 09:44:50;;;;;;;17.37;3.87;;;;;;;-144.99;58.33;52256.50;5112445;28;20240;-74
2021/03/21 09:47:25;;;;;;;25.70;6.73;;;;;;;-144.99;57.60;52299.31;5111262;28;20212;-74
2021/03/21 09:49:57;;;;;;;14.90;5.00;;;;;;;-144.99;57.47;52285.03;5121186;27;20202;-74
2021/03/21 09:52:32;;;;;;;13.60;5.47;;;;;;;-144.99;58.68;52285.03;5112259;28;20222;-76
2021/03/21 09:55:05;;;;;;;14.20;5.60;;;;;;;-144.99;56.72;52303.38;5112497;28;20499;-75
2021/03/21 09:58:01;;;;;;;13.43;4.57;;;;;;;-144.99;56.19;52256.50;5119718;27;20699;-73
2021/03/21 10:00:32;;;;;;;17.63;4.63;;;;;;;-144.99;55.26;52256.50;5112174;27;20229;-73
2021/03/21 10:03:02;;;;;;;16.93;5.07;;;;;;;-144.99;55.18;52272.81;5131258;27;20194;-71
2021/03/21 10:05:36;;;;;;;9.23;3.53;;;;;;;-144.99;54.60;52311.53;5130287;27;20199;-71
2021/03/21 10:08:10;;;;;;;25.97;4.60;;;;;;;-144.99;54.65;52264.66;5121231;27;20318;-73
2021/03/21 10:10:39;;;;;;;13.87;3.40;;;;;;;-144.99;55.50;52289.13;5128173;27;20223;-74
2021/03/21 10:13:06;;;;;;;15.40;4.27;;;;;;;-144.99;55.03;52346.19;5119211;27;20781;-71
2021/03/21 10:16:08;;;;;;;19.30;5.67;;;;;;;-144.99;55.27;52313.56;5125123;27;20207;-71
2021/03/21 10:18:43;;;;;;;15.57;3.17;;;;;;;-144.99;55.84;52317.66;5121316;27;20202;-72
2021/03/21 10:21:10;;;;;;;14.20;3.43;;;;;;;-144.99;55.60;52280.97;5112226;27;20260;-72
2021/03/21 10:24:15;;;;;;;21.97;4.80;;;;;;;-144.99;54.88;52313.56;5116781;27;20285;-74
2021/03/21 10:27:27;;;;;;;16.27;3.83;;;;;;;-144.99;54.55;52289.13;5111367;28;20199;-73
2021/03/21 10:30:29;;;;;;;7.37;2.93;;;;;;;-144.99;54.36;52301.34;5113235;28;20229;-71
2021/03/21 10:33:31;;;;;;;17.10;3.37;;;;;;;-144.99;55.03;52342.09;5125163;27;20206;-73
2021/03/21 10:35:57;;;;;;;12.20;3.73;;;;;;;-144.99;55.11;52278.91;5037838;28;20637;-72
2021/03/21 10:38:48;;;;;;;19.07;4.50;;;;;;;-144.99;53.90;52227.97;5098770;27;20265;-72
2021/03/21 10:41:52;;;;;;;15.93;4.03;;;;;;;-144.99;53.29;52232.03;5120395;27;20693;-72
2021/03/21 10:44:20;;;;;;;9.97;3.17;;;;;;;-144.99;51.97;52211.66;5111682;28;20213;-72
2021/03/21 10:46:53;;;;;;;19.40;7.80;;;;;;;-144.99;51.45;52276.88;5110521;28;20207;-72
2021/03/21 10:49:46;;;;;;;12.20;3.37;;;;;;;-144.99;50.55;52199.44;5111880;28;20253;-72
2021/03/21 10:52:31;;;;;;;26.93;4.23;;;;;;;-144.99;49.82;52174.97;5111016;28;20242;-72
2021/03/21 10:55:29;;;;;;;7.77;2.50;;;;;;;-144.99;48.76;52168.84;5120866;27;20199;-71
2021/03/21 10:57:59;;;;;;;8.73;4.87;;;;;;;-144.99;47.68;52203.50;5126448;27;20214;-71
2021/03/21 11:00:26;;;;;;;14.10;3.80;;;;;;;-144.99;46.92;52142.38;5123301;27;20231;-72
2021/03/21 11:03:11;;;;;;;15.97;4.87;;;;;;;-144.99;46.69;52187.19;5119136;27;20499;-73
2021/03/21 11:05:40;;;;;;;7.80;3.23;;;;;;;-144.99;45.94;52209.63;5114300;28;20656;-74
2021/03/21 11:08:17;;;;;;;11.10;2.83;;;;;;;-144.99;46.04;52191.28;5119656;27;20279;-73
2021/03/21 11:10:48;;;;;;;16.20;3.17;;;;;;;-144.99;45.52;52126.06;5118127;27;20292;-73
2021/03/21 11:13:15;;;;;;;16.17;3.60;;;;;;;-144.99;44.55;52134.22;5112619;28;20199;-71
2021/03/21 11:15:45;;;;;;;14.90;3.93;;;;;;;-144.99;44.06;52146.44;5116421;28;20207;-74
2021/03/21 11:18:24;;;;;;;14.53;6.60;;;;;;;-144.99;42.95;52107.72;5120216;27;20190;-73
2021/03/21 11:21:03;;;;;;;11.90;3.20;;;;;;;-144.99;41.71;52154.59;5119898;27;20226;-73
2021/03/21 11:23:34;;;;;;;15.43;3.17;;;;;;;-144.99;40.93;52126.06;5121948;27;20198;-73
2021/03/21 11:26:00;;;;;;;9.37;3.87;;;;;;;-144.99;39.79;52069.00;5118061;27;20209;-73
2021/03/21 11:28:36;;;;;;;16.03;3.57;;;;;;;-144.99;39.18;52069.00;5117295;27;20233;-71
2021/03/21 11:31:04;;;;;;;14.07;2.53;;;;;;;-144.99;38.17;52060.84;5119245;27;20225;-73
2021/03/21 11:33:35;;;;;;;11.63;3.17;;;;;;;-144.99;37.36;52007.84;5117402;27;20260;-71
2021/03/21 11:36:17;;;;;;;8.87;2.73;;;;;;;-144.99;36.79;52064.91;5119527;27;20203;-72
2021/03/21 11:38:43;;;;;;;11.67;3.37;;;;;;;-144.99;36.10;52036.38;5121556;27;20234;-74
2021/03/21 11:41:24;;;;;;;9.47;3.23;;;;;;;-144.99;35.47;52018.03;5122648;27;20232;-73
2021/03/21 11:43:50;;;;;;;14.53;3.63;;;;;;;-144.99;34.71;52138.28;5123022;27;20341;-71
2021/03/21 11:46:28;;;;;;;10.83;3.47;;;;;;;-144.99;35.36;52095.50;5120102;27;20210;-73
2021/03/21 11:48:57;;;;;;;11.30;3.53;;;;;;;-144.99;35.46;52158.66;5120059;27;20214;-76
2021/03/21 11:51:25;;;;;;;47.70;19.13;;;;;;;-144.99;35.58;52211.66;5118153;27;20779;-72